createdAt,value
2023-05-06T00:00:02.387Z,97314.41
2023-05-06T00:03:13.263Z,97305.00
2023-05-06T00:06:14.974Z,97312.59
2023-05-06T00:09:16.629Z,97316.91
2023-05-06T00:12:18.171Z,97320.63
2023-05-06T00:15:19.660Z,97319.84
2023-05-06T00:18:22.798Z,97319.22
2023-05-06T00:21:24.254Z,97315.13
2023-05-06T00:24:25.758Z,97309.22
2023-05-06T00:27:27.284Z,97299.16
2023-05-06T00:30:29.442Z,97299.56
2023-05-06T00:33:30.949Z,97319.19
2023-05-06T00:36:32.644Z,97310.59
2023-05-06T00:39:34.614Z,97305.06
2023-05-06T00:42:36.456Z,97304.06
2023-05-06T00:45:38.715Z,97292.19
2023-05-06T00:48:40.636Z,97297.75
2023-05-06T00:51:42.278Z,97307.16
2023-05-06T00:54:43.792Z,97290.97
2023-05-06T00:57:45.450Z,97302.22
2023-05-06T01:00:47.270Z,97299.56
2023-05-06T01:03:48.961Z,97299.34
2023-05-06T01:07:18.029Z,97295.22
2023-05-06T01:10:53.407Z,97298.72
2023-05-06T01:14:11.023Z,97298.72
2023-05-06T01:17:16.932Z,97291.13
2023-05-06T01:20:21.234Z,97294.00
2023-05-06T01:23:22.826Z,97299.56
2023-05-06T01:26:26.341Z,97298.72
2023-05-06T01:29:28.226Z,97298.06
2023-05-06T01:32:48.465Z,97299.06
2023-05-06T01:35:56.518Z,97308.91
2023-05-06T01:39:12.153Z,97296.22
2023-05-06T01:42:13.939Z,97294.41
2023-05-06T01:45:17.827Z,97288.69
2023-05-06T01:48:24.482Z,97289.91
2023-05-06T01:51:25.962Z,97287.44
2023-05-06T01:54:27.611Z,97277.16
2023-05-06T01:57:29.033Z,97284.50
2023-05-06T02:00:30.696Z,97281.75
2023-05-06T02:03:32.251Z,97276.75
2023-05-06T02:06:33.881Z,97278.56
2023-05-06T02:09:35.393Z,97283.31
2023-05-06T02:12:38.072Z,97283.59
2023-05-06T02:15:39.632Z,97281.59
2023-05-06T02:18:44.223Z,97281.97
2023-05-06T02:21:46.114Z,97286.06
2023-05-06T02:24:47.619Z,97289.34
2023-05-06T02:27:49.119Z,97287.72
2023-05-06T02:30:57.760Z,97294.25
2023-05-06T02:33:59.290Z,97286.91
2023-05-06T02:37:00.807Z,97278.94
2023-05-06T02:40:02.386Z,97281.59
2023-05-06T02:43:06.816Z,97285.88
2023-05-06T02:46:08.956Z,97282.41
2023-05-06T02:49:10.484Z,97284.69
2023-05-06T02:52:11.928Z,97277.53
2023-05-06T02:55:13.377Z,97273.44
2023-05-06T02:58:14.901Z,97265.41
2023-05-06T03:01:16.330Z,97272.09
2023-05-06T03:04:18.421Z,97263.22
2023-05-06T03:07:20.146Z,97256.00
2023-05-06T03:10:21.720Z,97257.56
2023-05-06T03:13:23.421Z,97264.72
2023-05-06T03:16:25.392Z,97264.09
2023-05-06T03:19:29.919Z,97262.13
2023-05-06T03:22:32.308Z,97258.06
2023-05-06T03:25:34.116Z,97257.25
2023-05-06T03:28:35.654Z,97258.06
2023-05-06T03:31:38.975Z,97256.22
2023-05-06T03:34:40.724Z,97251.88
2023-05-06T03:37:44.382Z,97254.34
2023-05-06T03:40:46.130Z,97252.13
2023-05-06T03:43:49.526Z,97264.22
2023-05-06T03:46:53.963Z,97253.66
2023-05-06T03:49:56.226Z,97260.16
2023-05-06T03:52:57.873Z,97265.09
2023-05-06T03:56:01.957Z,97261.38
2023-05-06T03:59:05.276Z,97264.66
2023-05-06T04:02:07.069Z,97262.25
2023-05-06T04:05:11.347Z,97261.84
2023-05-06T04:08:13.074Z,97256.16
2023-05-06T04:11:14.997Z,97259.06
2023-05-06T04:14:16.563Z,97258.66
2023-05-06T04:17:18.606Z,97269.09
2023-05-06T04:20:21.613Z,97271.34
2023-05-06T04:23:23.712Z,97271.97
2023-05-06T04:26:25.936Z,97272.81
2023-05-06T04:29:27.487Z,97281.22
2023-05-06T04:32:34.113Z,97281.22
2023-05-06T04:35:37.685Z,97280.88
2023-05-06T04:38:39.971Z,97274.91
2023-05-06T04:41:41.839Z,97270.00
2023-05-06T04:44:45.726Z,97277.97
2023-05-06T04:47:47.569Z,97269.78
2023-05-06T04:50:51.011Z,97261.38
2023-05-06T04:53:52.806Z,97267.69
2023-05-06T04:56:54.593Z,97265.03
2023-05-06T04:59:56.176Z,97262.00
2023-05-06T05:02:57.811Z,97270.63
2023-05-06T05:05:59.422Z,97269.81
2023-05-06T05:09:01.974Z,97263.75
2023-05-06T05:12:05.762Z,97266.66
2023-05-06T05:15:11.275Z,97268.31
2023-05-06T05:18:13.279Z,97273.66
2023-05-06T05:21:15.738Z,97274.88
2023-05-06T05:24:17.451Z,97266.69
2023-05-06T05:27:18.969Z,97267.50
2023-05-06T05:30:21.140Z,97273.88
2023-05-06T05:33:22.785Z,97274.06
2023-05-06T05:36:25.386Z,97270.59
2023-05-06T05:39:29.468Z,97273.66
2023-05-06T05:42:33.700Z,97276.78
2023-05-06T05:45:39.785Z,97279.63
2023-05-06T05:48:43.668Z,97279.84
2023-05-06T05:51:45.954Z,97278.81
2023-05-06T05:54:50.738Z,97271.25
2023-05-06T05:57:52.353Z,97272.88
2023-05-06T06:00:56.154Z,97275.53
2023-05-06T06:03:59.877Z,97275.31
2023-05-06T06:07:04.519Z,97280.22
2023-05-06T06:10:10.210Z,97286.56
2023-05-06T06:13:11.914Z,97288.19
2023-05-06T06:16:13.501Z,97281.66
2023-05-06T06:19:15.931Z,97288.44
2023-05-06T06:22:18.045Z,97297.47
2023-05-06T06:25:21.412Z,97302.38
2023-05-06T06:28:22.948Z,97301.94
2023-05-06T06:31:24.545Z,97308.13
2023-05-06T06:34:26.197Z,97303.81
2023-05-06T06:37:27.645Z,97308.72
2023-05-06T06:40:29.107Z,97302.75
2023-05-06T06:43:30.681Z,97302.28
2023-05-06T06:46:36.918Z,97306.34
2023-05-06T06:49:39.385Z,97308.88
2023-05-06T06:52:40.897Z,97306.44
2023-05-06T06:55:43.840Z,97304.44
2023-05-06T06:58:45.398Z,97296.44
2023-05-06T07:01:46.940Z,97294.19
2023-05-06T07:04:49.143Z,97297.03
2023-05-06T07:07:50.644Z,97293.28
2023-05-06T07:10:52.252Z,97296.53
2023-05-06T07:13:53.722Z,97295.53
2023-05-06T07:16:55.924Z,97309.75
2023-05-06T07:19:57.335Z,97314.13
2023-05-06T07:22:58.899Z,97312.81
2023-05-06T07:26:00.458Z,97320.31
2023-05-06T07:29:02.047Z,97319.22
2023-05-06T07:32:03.877Z,97310.22
2023-05-06T07:35:05.676Z,97319.94
2023-05-06T07:38:07.146Z,97315.94
2023-05-06T07:41:08.634Z,97321.09
2023-05-06T07:44:10.169Z,97322.47
2023-05-06T07:47:11.737Z,97318.09
2023-05-06T07:50:13.378Z,97316.47
2023-05-06T07:53:14.828Z,97321.78
2023-05-06T07:56:17.244Z,97317.53
2023-05-06T07:59:18.887Z,97309.78
2023-05-06T08:02:20.497Z,97319.53
2023-05-06T08:05:22.040Z,97320.03
2023-05-06T08:08:23.899Z,97311.84
2023-05-06T08:11:25.465Z,97315.41
2023-05-06T08:14:27.071Z,97317.69
2023-05-06T08:17:28.645Z,97325.72
2023-05-06T08:20:30.241Z,97315.31
2023-05-06T08:23:32.251Z,97328.25
2023-05-06T08:26:33.770Z,97330.81
2023-05-06T08:29:35.310Z,97329.69
2023-05-06T08:32:36.885Z,97330.69
2023-05-06T08:35:38.382Z,97328.78
2023-05-06T08:38:39.912Z,97328.50
2023-05-06T08:41:45.032Z,97326.56
2023-05-06T08:44:47.261Z,97329.06
2023-05-06T08:47:49.037Z,97326.94
2023-05-06T08:50:51.046Z,97321.06
2023-05-06T08:53:54.710Z,97322.81
2023-05-06T08:56:58.762Z,97312.31
2023-05-06T09:00:00.837Z,97321.63
2023-05-06T09:03:02.494Z,97318.53
2023-05-06T09:06:04.744Z,97314.69
2023-05-06T09:09:06.404Z,97306.81
2023-05-06T09:12:14.876Z,97315.34
2023-05-06T09:15:16.484Z,97313.38
2023-05-06T09:18:17.951Z,97311.50
2023-05-06T09:21:19.440Z,97298.44
2023-05-06T09:24:21.198Z,97306.47
2023-05-06T09:27:34.956Z,97299.69
2023-05-06T09:30:44.858Z,97286.28
2023-05-06T09:33:46.451Z,97283.97
2023-05-06T09:36:47.930Z,97290.97
2023-05-06T09:39:57.659Z,97280.22
2023-05-06T09:43:00.256Z,97289.44
2023-05-06T09:46:02.222Z,97290.25
2023-05-06T09:49:03.928Z,97276.63
2023-05-06T09:52:07.393Z,97279.84
2023-05-06T09:55:10.989Z,97277.09
2023-05-06T09:58:13.236Z,97276.13
2023-05-06T10:01:25.154Z,97270.66
2023-05-06T10:04:37.092Z,97272.22
2023-05-06T10:07:40.805Z,97261.88
2023-05-06T10:10:43.066Z,97251.59
2023-05-06T10:13:45.478Z,97253.06
2023-05-06T10:16:48.744Z,97246.13
2023-05-06T10:19:55.367Z,97241.63
2023-05-06T10:23:05.819Z,97245.88
2023-05-06T10:26:11.430Z,97243.09
2023-05-06T10:29:13.553Z,97228.50
2023-05-06T10:32:17.977Z,97241.06
2023-05-06T10:35:26.179Z,97228.09
2023-05-06T10:38:42.413Z,97219.22
2023-05-06T10:41:43.986Z,97227.09
2023-05-06T10:44:58.564Z,97227.19
2023-05-06T10:48:02.900Z,97218.38
2023-05-06T10:51:16.547Z,97225.81
2023-05-06T10:54:19.231Z,97225.72
2023-05-06T10:57:26.544Z,97219.34
2023-05-06T11:00:34.767Z,97213.88
2023-05-06T11:03:36.403Z,97221.88
2023-05-06T11:06:46.203Z,97219.81
2023-05-06T11:10:08.205Z,97217.09
2023-05-06T11:13:27.803Z,97215.09
2023-05-06T11:16:51.610Z,97213.19
2023-05-06T11:20:19.695Z,97210.34
2023-05-06T11:23:21.152Z,97211.09
2023-05-06T11:26:24.389Z,97210.69
2023-05-06T11:29:26.819Z,97208.56
2023-05-06T11:32:29.374Z,97207.44
2023-05-06T11:35:37.875Z,97203.59
2023-05-06T11:38:46.437Z,97201.19
2023-05-06T11:41:47.973Z,97197.16
2023-05-06T11:44:49.499Z,97190.47
2023-05-06T11:47:54.458Z,97195.84
2023-05-06T11:50:55.956Z,97189.53
2023-05-06T11:54:06.324Z,97184.28
2023-05-06T11:57:08.809Z,97180.06
2023-05-06T12:00:11.872Z,97186.03
2023-05-06T12:03:16.583Z,97178.75
2023-05-06T12:06:19.115Z,97191.78
2023-05-06T12:09:22.304Z,97189.28
2023-05-06T12:12:24.513Z,97181.81
2023-05-06T12:15:26.575Z,97178.78
2023-05-06T12:18:28.464Z,97182.97
2023-05-06T12:21:30.602Z,97177.34
2023-05-06T12:24:32.090Z,97175.03
2023-05-06T12:27:35.658Z,97170.06
2023-05-06T12:30:37.255Z,97172.31
2023-05-06T12:33:51.630Z,97169.19
2023-05-06T12:36:53.215Z,97159.03
2023-05-06T12:39:58.438Z,97167.56
2023-05-06T12:43:00.881Z,97161.16
2023-05-06T12:46:07.183Z,97156.41
2023-05-06T12:49:08.792Z,97162.41
2023-05-06T12:52:10.793Z,97157.00
2023-05-06T12:55:13.119Z,97160.53
2023-05-06T12:58:16.662Z,97161.34
2023-05-06T13:01:18.859Z,97152.69
2023-05-06T13:04:21.257Z,97163.84
2023-05-06T13:07:22.838Z,97152.75
2023-05-06T13:10:24.393Z,97152.22
2023-05-06T13:13:26.060Z,97150.84
2023-05-06T13:16:29.565Z,97142.50
2023-05-06T13:19:33.202Z,97139.25
2023-05-06T13:22:46.971Z,97138.97
2023-05-06T13:26:04.123Z,97140.84
2023-05-06T13:29:06.971Z,97138.59
2023-05-06T13:32:09.088Z,97121.31
2023-05-06T13:35:11.078Z,97128.97
2023-05-06T13:38:12.765Z,97122.44
2023-05-06T13:41:14.199Z,97122.16
2023-05-06T13:44:19.309Z,97130.22
2023-05-06T13:47:20.987Z,97122.97
2023-05-06T13:50:22.450Z,97122.16
2023-05-06T13:53:23.909Z,97107.59
2023-05-06T13:56:25.662Z,97109.22
2023-05-06T13:59:27.160Z,97104.88
2023-05-06T14:02:29.351Z,97097.53
2023-05-06T14:05:30.949Z,97094.56
2023-05-06T14:08:32.947Z,97087.44
2023-05-06T14:11:34.453Z,97107.34
2023-05-06T14:14:35.942Z,97090.97
2023-05-06T14:17:38.248Z,97088.28
2023-05-06T14:20:39.809Z,97095.72
2023-05-06T14:23:41.276Z,97091.91
2023-05-06T14:26:42.788Z,97078.00
2023-05-06T14:29:46.044Z,97086.09
2023-05-06T14:32:47.591Z,97077.16
2023-05-06T14:35:51.955Z,97082.59
2023-05-06T14:38:53.356Z,97083.00
2023-05-06T14:41:54.859Z,97084.78
2023-05-06T14:44:56.797Z,97070.97
2023-05-06T14:47:58.370Z,97078.72
2023-05-06T14:50:59.901Z,97082.94
2023-05-06T14:54:01.451Z,97083.28
2023-05-06T14:57:03.492Z,97076.09
2023-05-06T15:00:10.050Z,97077.91
2023-05-06T15:03:11.683Z,97079.03
2023-05-06T15:06:13.195Z,97077.47
2023-05-06T15:09:14.682Z,97077.47
2023-05-06T15:12:16.258Z,97069.16
2023-05-06T15:15:17.748Z,97070.66
2023-05-06T15:18:19.226Z,97077.69
2023-05-06T15:21:20.750Z,97079.69
2023-05-06T15:24:22.986Z,97078.03
2023-05-06T15:27:24.463Z,97077.53
2023-05-06T15:30:25.949Z,97074.88
2023-05-06T15:33:27.638Z,97080.81
2023-05-06T15:36:29.075Z,97080.78
2023-05-06T15:39:37.554Z,97088.38
2023-05-06T15:42:40.006Z,97079.50
2023-05-06T15:45:41.494Z,97077.38
2023-05-06T15:48:43.131Z,97072.16
2023-05-06T15:51:44.669Z,97069.19
2023-05-06T15:54:49.555Z,97064.56
2023-05-06T15:57:53.562Z,97063.78
2023-05-06T16:00:55.081Z,97059.22
2023-05-06T16:03:56.752Z,97064.88
2023-05-06T16:06:58.414Z,97066.75
2023-05-06T16:09:59.885Z,97053.53
2023-05-06T16:13:01.376Z,97056.53
2023-05-06T16:16:03.065Z,97061.94
2023-05-06T16:19:04.764Z,97064.13
2023-05-06T16:22:06.428Z,97065.16
2023-05-06T16:25:08.272Z,97056.75
2023-05-06T16:28:09.896Z,97064.94
2023-05-06T16:31:11.531Z,97060.84
2023-05-06T16:34:13.155Z,97049.34
2023-05-06T16:37:15.563Z,97053.66
2023-05-06T16:40:18.967Z,97054.72
2023-05-06T16:43:20.652Z,97048.50
2023-05-06T16:46:24.229Z,97042.94
2023-05-06T16:49:28.007Z,97047.69
2023-05-06T16:52:30.745Z,97043.91
2023-05-06T16:55:32.536Z,97042.91
2023-05-06T16:58:34.151Z,97051.06
2023-05-06T17:01:35.700Z,97043.50
2023-05-06T17:04:37.620Z,97037.56
2023-05-06T17:07:39.135Z,97031.34
2023-05-06T17:10:40.726Z,97039.16
2023-05-06T17:13:42.188Z,97040.25
2023-05-06T17:16:43.797Z,97041.91
2023-05-06T17:19:45.370Z,97037.59
2023-05-06T17:22:47.037Z,97035.50
2023-05-06T17:25:48.676Z,97041.41
2023-05-06T17:28:50.856Z,97035.47
2023-05-06T17:31:52.378Z,97036.75
2023-05-06T17:34:53.899Z,97033.56
2023-05-06T17:37:55.985Z,97025.06
2023-05-06T17:40:57.541Z,97031.75
2023-05-06T17:43:59.412Z,97036.75
2023-05-06T17:47:01.226Z,97034.94
2023-05-06T17:50:03.179Z,97034.88
2023-05-06T17:53:04.677Z,97039.59
2023-05-06T17:56:06.403Z,97046.97
2023-05-06T17:59:07.929Z,97047.50
2023-05-06T18:02:13.810Z,97042.38
2023-05-06T18:05:16.565Z,97046.13
2023-05-06T18:08:18.244Z,97046.34
2023-05-06T18:11:19.739Z,97047.81
2023-05-06T18:14:21.233Z,97040.41
2023-05-06T18:17:22.718Z,97056.09
2023-05-06T18:20:24.222Z,97055.94
2023-05-06T18:23:26.354Z,97072.84
2023-05-06T18:26:44.728Z,97074.59
2023-05-06T18:29:47.754Z,97070.63
2023-05-06T18:32:51.015Z,97070.31
2023-05-06T18:35:53.515Z,97075.81
2023-05-06T18:38:54.987Z,97077.25
2023-05-06T18:41:56.526Z,97077.47
2023-05-06T18:44:58.090Z,97083.72
2023-05-06T18:47:59.765Z,97082.13
2023-05-06T18:51:16.951Z,97085.94
2023-05-06T18:54:21.772Z,97090.13
2023-05-06T18:57:24.311Z,97087.88
2023-05-06T19:00:26.360Z,97090.94
2023-05-06T19:03:28.368Z,97094.84
2023-05-06T19:06:31.520Z,97095.13
2023-05-06T19:09:36.837Z,97098.56
2023-05-06T19:12:38.430Z,97098.91
2023-05-06T19:15:39.946Z,97106.59
2023-05-06T19:18:41.533Z,97104.44
2023-05-06T19:21:42.926Z,97103.69
2023-05-06T19:24:44.582Z,97100.06
2023-05-06T19:27:46.204Z,97109.47
2023-05-06T19:30:48.595Z,97112.38
2023-05-06T19:33:50.362Z,97106.06
2023-05-06T19:36:51.853Z,97106.31
2023-05-06T19:39:53.253Z,97115.31
2023-05-06T19:42:54.916Z,97110.25
2023-05-06T19:45:56.654Z,97108.03
2023-05-06T19:48:58.368Z,97109.13
2023-05-06T19:51:59.848Z,97102.81
2023-05-06T19:55:03.856Z,97101.47
2023-05-06T19:58:05.346Z,97107.81
2023-05-06T20:01:06.919Z,97105.19
2023-05-06T20:04:09.664Z,97095.41
2023-05-06T20:07:12.764Z,97098.72
2023-05-06T20:10:14.549Z,97090.78
2023-05-06T20:13:17.720Z,97101.84
2023-05-06T20:16:19.335Z,97094.69
2023-05-06T20:19:29.119Z,97098.97
2023-05-06T20:22:32.276Z,97091.84
2023-05-06T20:25:36.784Z,97098.22
2023-05-06T20:28:39.145Z,97091.06
2023-05-06T20:31:40.793Z,97094.31
2023-05-06T20:34:42.979Z,97087.34
2023-05-06T20:37:44.729Z,97084.91
2023-05-06T20:40:47.369Z,97092.91
2023-05-06T20:43:52.752Z,97095.97
2023-05-06T20:46:54.274Z,97097.59
2023-05-06T20:49:55.725Z,97093.13
2023-05-06T20:52:57.174Z,97093.53
2023-05-06T20:55:58.630Z,97096.78
2023-05-06T20:59:00.145Z,97085.72
2023-05-06T21:02:01.916Z,97090.84
2023-05-06T21:05:03.658Z,97087.56
2023-05-06T21:08:05.069Z,97087.56
2023-05-06T21:11:06.878Z,97080.59
2023-05-06T21:14:08.629Z,97088.38
2023-05-06T21:17:10.521Z,97077.94
2023-05-06T21:20:12.563Z,97091.41
2023-05-06T21:23:14.341Z,97091.75
2023-05-06T21:26:15.954Z,97092.38
2023-05-06T21:29:17.366Z,97091.56
2023-05-06T21:32:18.968Z,97093.56
2023-05-06T21:35:20.683Z,97094.56
2023-05-06T21:38:22.155Z,97091.06
2023-05-06T21:41:23.580Z,97091.66
2023-05-06T21:44:25.124Z,97088.38
2023-05-06T21:47:26.651Z,97093.69
2023-05-06T21:50:28.256Z,97092.81
2023-05-06T21:53:29.750Z,97084.59
2023-05-06T21:56:31.217Z,97085.63
2023-05-06T21:59:32.633Z,97087.88
2023-05-06T22:02:34.166Z,97088.25
2023-05-06T22:05:35.704Z,97091.53
2023-05-06T22:08:37.244Z,97085.34
2023-05-06T22:11:38.851Z,97088.00
2023-05-06T22:14:41.787Z,97087.75
2023-05-06T22:17:43.508Z,97081.84
2023-05-06T22:20:46.603Z,97083.22
2023-05-06T22:23:48.072Z,97074.19
2023-05-06T22:26:49.734Z,97068.88
2023-05-06T22:29:51.297Z,97078.44
2023-05-06T22:32:52.889Z,97090.47
2023-05-06T22:35:55.367Z,97081.50
2023-05-06T22:38:56.881Z,97082.50
2023-05-06T22:41:58.371Z,97082.28
2023-05-06T22:44:59.868Z,97080.03
2023-05-06T22:48:01.456Z,97081.56
2023-05-06T22:51:02.977Z,97081.94
2023-05-06T22:54:04.848Z,97077.44
2023-05-06T22:57:06.591Z,97077.13
2023-05-06T23:00:08.767Z,97086.00
2023-05-06T23:03:10.633Z,97085.41
2023-05-06T23:06:12.203Z,97081.94
2023-05-06T23:09:13.643Z,97069.91
2023-05-06T23:12:15.129Z,97062.50
2023-05-06T23:15:16.613Z,97061.84
2023-05-06T23:18:18.995Z,97064.66
2023-05-06T23:21:20.503Z,97063.78
2023-05-06T23:24:22.040Z,97065.13
2023-05-06T23:27:23.487Z,97064.16
2023-05-06T23:30:24.925Z,97060.13
2023-05-06T23:33:26.731Z,97058.88
2023-05-06T23:36:28.298Z,97067.06
2023-05-06T23:39:29.760Z,97063.66
2023-05-06T23:42:31.232Z,97056.72
2023-05-06T23:45:32.731Z,97056.47
2023-05-06T23:48:34.664Z,97063.81
2023-05-06T23:51:36.182Z,97058.50
2023-05-06T23:54:37.645Z,97050.81
2023-05-06T23:57:39.149Z,97052.75
